sensor_id;sensor_type;location;lat;lon;timestamp;P1;durP1;ratioP1;P2;durP2;ratioP2
11986;SDS011;6053;51.382;6.768;2023-05-10T00:02:01;1.92;;;1.83;;
11986;SDS011;6053;51.382;6.768;2023-05-10T00:04:30;0.65;;;0.65;;
11986;SDS011;6053;51.382;6.768;2023-05-10T00:06:58;1.05;;;1.05;;
11986;SDS011;6053;51.382;6.768;2023-05-10T00:09:27;1.80;;;1.70;;
11986;SDS011;6053;51.382;6.768;2023-05-10T00:11:55;1.35;;;1.25;;
11986;SDS011;6053;51.382;6.768;2023-05-10T00:14:26;2.07;;;1.97;;
11986;SDS011;6053;51.382;6.768;2023-05-10T00:16:54;2.03;;;1.92;;
11986;SDS011;6053;51.382;6.768;2023-05-10T00:19:22;1.40;;;1.40;;
11986;SDS011;6053;51.382;6.768;2023-05-10T00:21:51;0.82;;;0.82;;
11986;SDS011;6053;51.382;6.768;2023-05-10T00:24:19;1.73;;;1.63;;
11986;SDS011;6053;51.382;6.768;2023-05-10T00:26:48;1.75;;;1.65;;
11986;SDS011;6053;51.382;6.768;2023-05-10T00:29:16;1.15;;;1.00;;
11986;SDS011;6053;51.382;6.768;2023-05-10T00:31:46;1.48;;;1.48;;
11986;SDS011;6053;51.382;6.768;2023-05-10T00:34:14;0.80;;;0.80;;
11986;SDS011;6053;51.382;6.768;2023-05-10T00:36:42;0.85;;;0.85;;
11986;SDS011;6053;51.382;6.768;2023-05-10T00:39:11;1.08;;;1.08;;
11986;SDS011;6053;51.382;6.768;2023-05-10T00:41:39;2.15;;;2.05;;
11986;SDS011;6053;51.382;6.768;2023-05-10T00:44:07;1.10;;;1.10;;
11986;SDS011;6053;51.382;6.768;2023-05-10T00:46:36;1.50;;;1.50;;
11986;SDS011;6053;51.382;6.768;2023-05-10T00:49:06;1.57;;;1.50;;
11986;SDS011;6053;51.382;6.768;2023-05-10T00:51:34;1.33;;;1.33;;
11986;SDS011;6053;51.382;6.768;2023-05-10T00:54:03;1.00;;;1.00;;
11986;SDS011;6053;51.382;6.768;2023-05-10T00:56:31;0.80;;;0.80;;
11986;SDS011;6053;51.382;6.768;2023-05-10T00:59:00;0.87;;;0.87;;
11986;SDS011;6053;51.382;6.768;2023-05-10T01:01:28;0.80;;;0.80;;
11986;SDS011;6053;51.382;6.768;2023-05-10T01:03:58;1.33;;;1.30;;
11986;SDS011;6053;51.382;6.768;2023-05-10T01:06:28;1.73;;;1.63;;
11986;SDS011;6053;51.382;6.768;2023-05-10T01:08:56;1.10;;;1.10;;
11986;SDS011;6053;51.382;6.768;2023-05-10T01:11:25;1.70;;;1.60;;
11986;SDS011;6053;51.382;6.768;2023-05-10T01:13:55;1.70;;;1.63;;
11986;SDS011;6053;51.382;6.768;2023-05-10T01:16:24;1.33;;;1.23;;
11986;SDS011;6053;51.382;6.768;2023-05-10T01:18:55;2.70;;;2.60;;
11986;SDS011;6053;51.382;6.768;2023-05-10T01:21:27;1.67;;;1.63;;
11986;SDS011;6053;51.382;6.768;2023-05-10T01:24:22;2.25;;;2.15;;
11986;SDS011;6053;51.382;6.768;2023-05-10T01:27:17;1.57;;;1.50;;
11986;SDS011;6053;51.382;6.768;2023-05-10T01:30:16;1.60;;;1.50;;
11986;SDS011;6053;51.382;6.768;2023-05-10T01:33:21;2.67;;;2.50;;
11986;SDS011;6053;51.382;6.768;2023-05-10T01:35:55;1.80;;;1.70;;
11986;SDS011;6053;51.382;6.768;2023-05-10T01:38:36;1.42;;;1.33;;
11986;SDS011;6053;51.382;6.768;2023-05-10T01:41:13;2.10;;;1.73;;
11986;SDS011;6053;51.382;6.768;2023-05-10T01:43:48;1.42;;;1.33;;
11986;SDS011;6053;51.382;6.768;2023-05-10T01:46:24;1.20;;;1.20;;
11986;SDS011;6053;51.382;6.768;2023-05-10T01:49:02;0.60;;;0.60;;
11986;SDS011;6053;51.382;6.768;2023-05-10T01:51:36;0.80;;;0.80;;
11986;SDS011;6053;51.382;6.768;2023-05-10T01:54:13;1.08;;;1.08;;
11986;SDS011;6053;51.382;6.768;2023-05-10T01:56:44;0.83;;;0.83;;
11986;SDS011;6053;51.382;6.768;2023-05-10T01:59:16;0.50;;;0.50;;
11986;SDS011;6053;51.382;6.768;2023-05-10T02:01:47;1.23;;;1.23;;
11986;SDS011;6053;51.382;6.768;2023-05-10T02:04:18;2.00;;;1.90;;
11986;SDS011;6053;51.382;6.768;2023-05-10T02:06:49;1.80;;;1.70;;
11986;SDS011;6053;51.382;6.768;2023-05-10T02:09:21;2.50;;;2.40;;
11986;SDS011;6053;51.382;6.768;2023-05-10T02:11:52;1.13;;;1.02;;
11986;SDS011;6053;51.382;6.768;2023-05-10T02:14:22;0.60;;;0.60;;
11986;SDS011;6053;51.382;6.768;2023-05-10T02:16:53;0.77;;;0.77;;
11986;SDS011;6053;51.382;6.768;2023-05-10T02:19:25;0.80;;;0.70;;
11986;SDS011;6053;51.382;6.768;2023-05-10T02:21:56;0.80;;;0.80;;
11986;SDS011;6053;51.382;6.768;2023-05-10T02:24:26;1.00;;;1.00;;
11986;SDS011;6053;51.382;6.768;2023-05-10T02:26:55;0.52;;;0.52;;
11986;SDS011;6053;51.382;6.768;2023-05-10T02:29:24;0.60;;;0.60;;
11986;SDS011;6053;51.382;6.768;2023-05-10T02:31:54;1.55;;;1.45;;
11986;SDS011;6053;51.382;6.768;2023-05-10T02:34:26;0.50;;;0.50;;
11986;SDS011;6053;51.382;6.768;2023-05-10T02:36:55;0.60;;;0.60;;
11986;SDS011;6053;51.382;6.768;2023-05-10T02:39:25;0.90;;;0.90;;
11986;SDS011;6053;51.382;6.768;2023-05-10T02:41:55;2.05;;;1.95;;
11986;SDS011;6053;51.382;6.768;2023-05-10T02:44:26;0.70;;;0.70;;
11986;SDS011;6053;51.382;6.768;2023-05-10T02:46:57;1.20;;;1.20;;
11986;SDS011;6053;51.382;6.768;2023-05-10T02:49:27;0.70;;;0.70;;
11986;SDS011;6053;51.382;6.768;2023-05-10T02:51:56;0.90;;;0.90;;
11986;SDS011;6053;51.382;6.768;2023-05-10T02:54:29;0.60;;;0.60;;
11986;SDS011;6053;51.382;6.768;2023-05-10T02:57:03;0.60;;;0.60;;
11986;SDS011;6053;51.382;6.768;2023-05-10T02:59:33;2.27;;;2.10;;
11986;SDS011;6053;51.382;6.768;2023-05-10T03:02:01;0.70;;;0.70;;
11986;SDS011;6053;51.382;6.768;2023-05-10T03:04:31;0.88;;;0.88;;
11986;SDS011;6053;51.382;6.768;2023-05-10T03:06:59;0.80;;;0.80;;
11986;SDS011;6053;51.382;6.768;2023-05-10T03:09:28;0.80;;;0.80;;
11986;SDS011;6053;51.382;6.768;2023-05-10T03:12:00;0.85;;;0.85;;
11986;SDS011;6053;51.382;6.768;2023-05-10T03:14:39;0.60;;;0.60;;
11986;SDS011;6053;51.382;6.768;2023-05-10T03:17:19;1.10;;;1.10;;
11986;SDS011;6053;51.382;6.768;2023-05-10T03:19:58;2.00;;;1.90;;
11986;SDS011;6053;51.382;6.768;2023-05-10T03:22:37;1.80;;;1.70;;
11986;SDS011;6053;51.382;6.768;2023-05-10T03:25:10;2.38;;;2.25;;
11986;SDS011;6053;51.382;6.768;2023-05-10T03:27:40;2.58;;;2.30;;
11986;SDS011;6053;51.382;6.768;2023-05-10T03:30:11;2.22;;;2.13;;
11986;SDS011;6053;51.382;6.768;2023-05-10T03:32:41;1.80;;;1.70;;
11986;SDS011;6053;51.382;6.768;2023-05-10T03:35:12;0.70;;;0.70;;
11986;SDS011;6053;51.382;6.768;2023-05-10T03:37:40;0.98;;;0.98;;
11986;SDS011;6053;51.382;6.768;2023-05-10T03:40:08;0.80;;;0.80;;
11986;SDS011;6053;51.382;6.768;2023-05-10T03:42:37;0.90;;;0.90;;
11986;SDS011;6053;51.382;6.768;2023-05-10T03:45:06;3.05;;;2.42;;
11986;SDS011;6053;51.382;6.768;2023-05-10T03:47:36;1.13;;;1.13;;
11986;SDS011;6053;51.382;6.768;2023-05-10T03:50:05;1.13;;;1.13;;
11986;SDS011;6053;51.382;6.768;2023-05-10T03:52:36;0.77;;;0.75;;
11986;SDS011;6053;51.382;6.768;2023-05-10T03:55:05;0.80;;;0.80;;
11986;SDS011;6053;51.382;6.768;2023-05-10T03:57:34;0.70;;;0.70;;
11986;SDS011;6053;51.382;6.768;2023-05-10T04:00:03;2.43;;;2.30;;
11986;SDS011;6053;51.382;6.768;2023-05-10T04:02:32;0.80;;;0.80;;
11986;SDS011;6053;51.382;6.768;2023-05-10T04:05:01;0.73;;;0.73;;
11986;SDS011;6053;51.382;6.768;2023-05-10T04:07:29;1.00;;;1.00;;
11986;SDS011;6053;51.382;6.768;2023-05-10T04:09:59;2.60;;;2.40;;
11986;SDS011;6053;51.382;6.768;2023-05-10T04:12:27;0.70;;;0.70;;
11986;SDS011;6053;51.382;6.768;2023-05-10T04:14:55;1.90;;;1.80;;
11986;SDS011;6053;51.382;6.768;2023-05-10T04:17:23;0.90;;;0.90;;
11986;SDS011;6053;51.382;6.768;2023-05-10T04:19:52;0.90;;;0.90;;
11986;SDS011;6053;51.382;6.768;2023-05-10T04:22:21;1.65;;;1.55;;
11986;SDS011;6053;51.382;6.768;2023-05-10T04:24:49;2.30;;;2.10;;
11986;SDS011;6053;51.382;6.768;2023-05-10T04:27:18;1.30;;;1.25;;
11986;SDS011;6053;51.382;6.768;2023-05-10T04:29:47;0.90;;;0.90;;
11986;SDS011;6053;51.382;6.768;2023-05-10T04:32:15;2.55;;;2.33;;
11986;SDS011;6053;51.382;6.768;2023-05-10T04:34:44;0.80;;;0.80;;
11986;SDS011;6053;51.382;6.768;2023-05-10T04:37:12;1.90;;;1.80;;
11986;SDS011;6053;51.382;6.768;2023-05-10T04:39:40;5.13;;;4.63;;
11986;SDS011;6053;51.382;6.768;2023-05-10T04:42:08;2.45;;;2.28;;
11986;SDS011;6053;51.382;6.768;2023-05-10T04:44:38;5.10;;;4.70;;
11986;SDS011;6053;51.382;6.768;2023-05-10T04:47:07;5.43;;;4.93;;
11986;SDS011;6053;51.382;6.768;2023-05-10T04:49:37;4.30;;;4.00;;
11986;SDS011;6053;51.382;6.768;2023-05-10T04:52:06;6.32;;;5.72;;
11986;SDS011;6053;51.382;6.768;2023-05-10T04:54:34;5.47;;;4.97;;
11986;SDS011;6053;51.382;6.768;2023-05-10T04:57:02;5.80;;;5.18;;
11986;SDS011;6053;51.382;6.768;2023-05-10T04:59:31;2.55;;;2.40;;
11986;SDS011;6053;51.382;6.768;2023-05-10T05:02:00;3.13;;;2.92;;
11986;SDS011;6053;51.382;6.768;2023-05-10T05:04:29;6.17;;;5.20;;
11986;SDS011;6053;51.382;6.768;2023-05-10T05:06:58;2.22;;;2.08;;
11986;SDS011;6053;51.382;6.768;2023-05-10T05:09:26;3.90;;;3.58;;
11986;SDS011;6053;51.382;6.768;2023-05-10T05:11:54;4.97;;;4.57;;
11986;SDS011;6053;51.382;6.768;2023-05-10T05:14:23;5.05;;;4.47;;
11986;SDS011;6053;51.382;6.768;2023-05-10T05:16:52;4.30;;;3.63;;
11986;SDS011;6053;51.382;6.768;2023-05-10T05:19:21;2.70;;;2.35;;
11986;SDS011;6053;51.382;6.768;2023-05-10T05:21:50;4.27;;;3.87;;
11986;SDS011;6053;51.382;6.768;2023-05-10T05:24:18;7.20;;;5.70;;
11986;SDS011;6053;51.382;6.768;2023-05-10T05:26:46;2.42;;;2.30;;
11986;SDS011;6053;51.382;6.768;2023-05-10T05:29:14;3.60;;;3.30;;
11986;SDS011;6053;51.382;6.768;2023-05-10T05:31:43;4.28;;;3.88;;
11986;SDS011;6053;51.382;6.768;2023-05-10T05:34:11;4.00;;;3.70;;
11986;SDS011;6053;51.382;6.768;2023-05-10T05:36:41;5.13;;;4.63;;
11986;SDS011;6053;51.382;6.768;2023-05-10T05:39:09;7.35;;;4.90;;
11986;SDS011;6053;51.382;6.768;2023-05-10T05:41:37;6.00;;;5.13;;
11986;SDS011;6053;51.382;6.768;2023-05-10T05:44:05;4.72;;;4.15;;
11986;SDS011;6053;51.382;6.768;2023-05-10T05:46:33;6.03;;;4.72;;
11986;SDS011;6053;51.382;6.768;2023-05-10T05:49:02;4.43;;;4.03;;
11986;SDS011;6053;51.382;6.768;2023-05-10T05:51:30;2.55;;;2.35;;
11986;SDS011;6053;51.382;6.768;2023-05-10T05:54:00;6.53;;;4.88;;
11986;SDS011;6053;51.382;6.768;2023-05-10T05:56:29;3.35;;;3.05;;
11986;SDS011;6053;51.382;6.768;2023-05-10T05:58:58;3.90;;;3.22;;
11986;SDS011;6053;51.382;6.768;2023-05-10T06:01:26;4.70;;;4.30;;
11986;SDS011;6053;51.382;6.768;2023-05-10T06:03:54;2.65;;;2.45;;
11986;SDS011;6053;51.382;6.768;2023-05-10T06:06:23;4.77;;;4.07;;
11986;SDS011;6053;51.382;6.768;2023-05-10T06:08:51;2.00;;;1.90;;
11986;SDS011;6053;51.382;6.768;2023-05-10T06:11:21;2.90;;;2.63;;
11986;SDS011;6053;51.382;6.768;2023-05-10T06:13:49;3.70;;;3.40;;
11986;SDS011;6053;51.382;6.768;2023-05-10T06:16:17;5.53;;;4.90;;
11986;SDS011;6053;51.382;6.768;2023-05-10T06:18:45;5.10;;;4.03;;
11986;SDS011;6053;51.382;6.768;2023-05-10T06:21:13;3.67;;;3.05;;
11986;SDS011;6053;51.382;6.768;2023-05-10T06:23:42;2.30;;;2.20;;
11986;SDS011;6053;51.382;6.768;2023-05-10T06:26:11;2.55;;;2.35;;
11986;SDS011;6053;51.382;6.768;2023-05-10T06:28:41;6.07;;;4.88;;
11986;SDS011;6053;51.382;6.768;2023-05-10T06:31:09;10.07;;;7.47;;
11986;SDS011;6053;51.382;6.768;2023-05-10T06:33:38;5.63;;;4.97;;
11986;SDS011;6053;51.382;6.768;2023-05-10T06:36:06;12.10;;;5.87;;
11986;SDS011;6053;51.382;6.768;2023-05-10T06:38:35;4.50;;;3.58;;
11986;SDS011;6053;51.382;6.768;2023-05-10T06:41:03;10.13;;;6.85;;
11986;SDS011;6053;51.382;6.768;2023-05-10T06:43:31;7.47;;;5.10;;
11986;SDS011;6053;51.382;6.768;2023-05-10T06:46:01;7.30;;;5.65;;
11986;SDS011;6053;51.382;6.768;2023-05-10T06:48:29;3.42;;;3.15;;
11986;SDS011;6053;51.382;6.768;2023-05-10T06:50:58;5.50;;;4.78;;
11986;SDS011;6053;51.382;6.768;2023-05-10T06:53:26;5.67;;;5.13;;
11986;SDS011;6053;51.382;6.768;2023-05-10T06:55:54;4.70;;;4.20;;
11986;SDS011;6053;51.382;6.768;2023-05-10T06:58:22;4.70;;;3.53;;
11986;SDS011;6053;51.382;6.768;2023-05-10T07:00:51;3.15;;;2.88;;
11986;SDS011;6053;51.382;6.768;2023-05-10T07:03:20;8.43;;;6.10;;
11986;SDS011;6053;51.382;6.768;2023-05-10T07:05:49;6.68;;;5.28;;
11986;SDS011;6053;51.382;6.768;2023-05-10T07:08:17;4.03;;;3.63;;
11986;SDS011;6053;51.382;6.768;2023-05-10T07:10:45;5.53;;;4.38;;
11986;SDS011;6053;51.382;6.768;2023-05-10T07:13:13;6.47;;;4.80;;
11986;SDS011;6053;51.382;6.768;2023-05-10T07:15:42;5.28;;;3.95;;
11986;SDS011;6053;51.382;6.768;2023-05-10T07:18:10;7.82;;;5.35;;
11986;SDS011;6053;51.382;6.768;2023-05-10T07:20:40;8.03;;;5.87;;
11986;SDS011;6053;51.382;6.768;2023-05-10T07:23:08;2.95;;;2.70;;
11986;SDS011;6053;51.382;6.768;2023-05-10T07:25:36;6.68;;;5.78;;
11986;SDS011;6053;51.382;6.768;2023-05-10T07:28:05;8.63;;;5.95;;
11986;SDS011;6053;51.382;6.768;2023-05-10T07:30:33;3.37;;;3.17;;
11986;SDS011;6053;51.382;6.768;2023-05-10T07:33:02;3.72;;;3.33;;
11986;SDS011;6053;51.382;6.768;2023-05-10T07:35:30;6.88;;;5.07;;
11986;SDS011;6053;51.382;6.768;2023-05-10T07:38:00;5.95;;;5.28;;
11986;SDS011;6053;51.382;6.768;2023-05-10T07:40:29;6.10;;;5.50;;
11986;SDS011;6053;51.382;6.768;2023-05-10T07:42:57;5.55;;;3.60;;
11986;SDS011;6053;51.382;6.768;2023-05-10T07:45:26;2.88;;;2.65;;
11986;SDS011;6053;51.382;6.768;2023-05-10T07:47:54;2.22;;;2.13;;
11986;SDS011;6053;51.382;6.768;2023-05-10T07:50:22;7.25;;;4.80;;
11986;SDS011;6053;51.382;6.768;2023-05-10T07:52:51;5.27;;;4.57;;
11986;SDS011;6053;51.382;6.768;2023-05-10T07:55:20;8.27;;;5.35;;
11986;SDS011;6053;51.382;6.768;2023-05-10T07:57:49;8.82;;;6.30;;
11986;SDS011;6053;51.382;6.768;2023-05-10T08:00:17;8.40;;;6.77;;
11986;SDS011;6053;51.382;6.768;2023-05-10T08:02:47;4.10;;;2.83;;
11986;SDS011;6053;51.382;6.768;2023-05-10T08:05:16;2.40;;;2.20;;
11986;SDS011;6053;51.382;6.768;2023-05-10T08:07:45;7.93;;;5.50;;
11986;SDS011;6053;51.382;6.768;2023-05-10T08:10:13;3.42;;;2.20;;
11986;SDS011;6053;51.382;6.768;2023-05-10T08:12:43;5.63;;;4.47;;
11986;SDS011;6053;51.382;6.768;2023-05-10T08:15:11;9.13;;;6.25;;
11986;SDS011;6053;51.382;6.768;2023-05-10T08:17:39;4.95;;;4.00;;
11986;SDS011;6053;51.382;6.768;2023-05-10T08:20:09;4.30;;;3.67;;
11986;SDS011;6053;51.382;6.768;2023-05-10T08:22:39;10.10;;;6.72;;
11986;SDS011;6053;51.382;6.768;2023-05-10T08:25:07;7.83;;;5.70;;
11986;SDS011;6053;51.382;6.768;2023-05-10T08:27:36;7.35;;;5.30;;
11986;SDS011;6053;51.382;6.768;2023-05-10T08:30:06;4.28;;;2.80;;
11986;SDS011;6053;51.382;6.768;2023-05-10T08:32:36;5.53;;;4.03;;
11986;SDS011;6053;51.382;6.768;2023-05-10T08:35:05;5.40;;;4.63;;
11986;SDS011;6053;51.382;6.768;2023-05-10T08:37:33;13.30;;;8.27;;
11986;SDS011;6053;51.382;6.768;2023-05-10T08:40:02;5.35;;;4.32;;
11986;SDS011;6053;51.382;6.768;2023-05-10T08:42:31;13.95;;;9.10;;
11986;SDS011;6053;51.382;6.768;2023-05-10T08:45:06;11.40;;;7.47;;
11986;SDS011;6053;51.382;6.768;2023-05-10T08:47:36;8.85;;;6.65;;
11986;SDS011;6053;51.382;6.768;2023-05-10T08:50:06;10.13;;;7.13;;
11986;SDS011;6053;51.382;6.768;2023-05-10T08:52:35;10.60;;;7.30;;
11986;SDS011;6053;51.382;6.768;2023-05-10T08:55:07;9.93;;;6.90;;
11986;SDS011;6053;51.382;6.768;2023-05-10T08:57:36;10.25;;;7.13;;
11986;SDS011;6053;51.382;6.768;2023-05-10T09:00:07;8.80;;;5.72;;
11986;SDS011;6053;51.382;6.768;2023-05-10T09:02:36;9.10;;;5.90;;
11986;SDS011;6053;51.382;6.768;2023-05-10T09:05:06;11.57;;;6.93;;
11986;SDS011;6053;51.382;6.768;2023-05-10T09:07:36;6.68;;;4.60;;
11986;SDS011;6053;51.382;6.768;2023-05-10T09:10:04;9.77;;;6.80;;
11986;SDS011;6053;51.382;6.768;2023-05-10T09:12:35;8.07;;;6.25;;
11986;SDS011;6053;51.382;6.768;2023-05-10T09:15:04;6.05;;;4.97;;
11986;SDS011;6053;51.382;6.768;2023-05-10T09:17:36;7.35;;;6.20;;
11986;SDS011;6053;51.382;6.768;2023-05-10T09:20:06;8.88;;;6.43;;
11986;SDS011;6053;51.382;6.768;2023-05-10T09:22:35;4.07;;;3.35;;
11986;SDS011;6053;51.382;6.768;2023-05-10T09:25:05;8.15;;;5.45;;
11986;SDS011;6053;51.382;6.768;2023-05-10T09:27:35;8.38;;;5.30;;
11986;SDS011;6053;51.382;6.768;2023-05-10T09:30:05;6.32;;;5.00;;
11986;SDS011;6053;51.382;6.768;2023-05-10T09:32:36;5.93;;;5.33;;
11986;SDS011;6053;51.382;6.768;2023-05-10T09:35:06;7.50;;;5.90;;
11986;SDS011;6053;51.382;6.768;2023-05-10T09:37:36;6.97;;;4.93;;
11986;SDS011;6053;51.382;6.768;2023-05-10T09:40:11;6.40;;;4.60;;
11986;SDS011;6053;51.382;6.768;2023-05-10T09:42:41;4.80;;;4.07;;
11986;SDS011;6053;51.382;6.768;2023-05-10T09:45:20;3.33;;;3.03;;
11986;SDS011;6053;51.382;6.768;2023-05-10T09:47:49;6.50;;;5.10;;
11986;SDS011;6053;51.382;6.768;2023-05-10T09:50:18;4.90;;;4.35;;
11986;SDS011;6053;51.382;6.768;2023-05-10T09:52:48;4.50;;;4.10;;
11986;SDS011;6053;51.382;6.768;2023-05-10T09:55:19;3.63;;;3.27;;
11986;SDS011;6053;51.382;6.768;2023-05-10T09:57:49;4.68;;;4.07;;
11986;SDS011;6053;51.382;6.768;2023-05-10T10:00:28;5.20;;;4.25;;
11986;SDS011;6053;51.382;6.768;2023-05-10T10:03:03;6.80;;;4.70;;
11986;SDS011;6053;51.382;6.768;2023-05-10T10:05:33;5.65;;;4.18;;
11986;SDS011;6053;51.382;6.768;2023-05-10T10:08:03;6.00;;;4.45;;
11986;SDS011;6053;51.382;6.768;2023-05-10T10:10:32;5.30;;;4.28;;
11986;SDS011;6053;51.382;6.768;2023-05-10T10:13:01;3.97;;;3.55;;
11986;SDS011;6053;51.382;6.768;2023-05-10T10:15:33;5.53;;;4.32;;
11986;SDS011;6053;51.382;6.768;2023-05-10T10:18:02;6.53;;;4.63;;
11986;SDS011;6053;51.382;6.768;2023-05-10T10:20:32;5.38;;;4.55;;
11986;SDS011;6053;51.382;6.768;2023-05-10T10:23:01;4.32;;;3.28;;
11986;SDS011;6053;51.382;6.768;2023-05-10T10:25:30;4.65;;;3.85;;
11986;SDS011;6053;51.382;6.768;2023-05-10T10:28:02;4.80;;;4.10;;
11986;SDS011;6053;51.382;6.768;2023-05-10T10:30:46;4.63;;;4.18;;
11986;SDS011;6053;51.382;6.768;2023-05-10T10:33:24;5.38;;;3.72;;
11986;SDS011;6053;51.382;6.768;2023-05-10T10:36:18;2.55;;;2.33;;
11986;SDS011;6053;51.382;6.768;2023-05-10T10:38:57;4.18;;;3.78;;
11986;SDS011;6053;51.382;6.768;2023-05-10T10:41:27;4.60;;;4.05;;
11986;SDS011;6053;51.382;6.768;2023-05-10T10:47:02;5.53;;;3.53;;
11986;SDS011;6053;51.382;6.768;2023-05-10T10:49:38;3.53;;;3.22;;
11986;SDS011;6053;51.382;6.768;2023-05-10T10:52:22;3.10;;;2.85;;
11986;SDS011;6053;51.382;6.768;2023-05-10T10:54:58;5.50;;;3.83;;
11986;SDS011;6053;51.382;6.768;2023-05-10T10:57:31;4.30;;;3.80;;
11986;SDS011;6053;51.382;6.768;2023-05-10T11:03:05;3.25;;;2.95;;
11986;SDS011;6053;51.382;6.768;2023-05-10T11:05:37;4.95;;;4.47;;
11986;SDS011;6053;51.382;6.768;2023-05-10T11:08:12;4.90;;;4.03;;
11986;SDS011;6053;51.382;6.768;2023-05-10T11:10:49;2.75;;;2.45;;
11986;SDS011;6053;51.382;6.768;2023-05-10T11:13:27;1.80;;;1.70;;
11986;SDS011;6053;51.382;6.768;2023-05-10T11:15:56;4.22;;;2.97;;
11986;SDS011;6053;51.382;6.768;2023-05-10T11:18:28;4.43;;;3.38;;
11986;SDS011;6053;51.382;6.768;2023-05-10T11:20:58;4.00;;;3.50;;
11986;SDS011;6053;51.382;6.768;2023-05-10T11:23:31;5.10;;;3.75;;
11986;SDS011;6053;51.382;6.768;2023-05-10T11:26:16;3.25;;;2.92;;
11986;SDS011;6053;51.382;6.768;2023-05-10T11:28:51;3.45;;;2.70;;
11986;SDS011;6053;51.382;6.768;2023-05-10T11:31:22;3.40;;;3.00;;
11986;SDS011;6053;51.382;6.768;2023-05-10T11:33:55;3.00;;;2.67;;
11986;SDS011;6053;51.382;6.768;2023-05-10T11:36:26;3.33;;;2.72;;
11986;SDS011;6053;51.382;6.768;2023-05-10T11:38:56;4.32;;;3.28;;
11986;SDS011;6053;51.382;6.768;2023-05-10T11:41:24;2.80;;;2.57;;
11986;SDS011;6053;51.382;6.768;2023-05-10T11:43:55;4.47;;;4.03;;
11986;SDS011;6053;51.382;6.768;2023-05-10T11:46:26;2.70;;;2.47;;
11986;SDS011;6053;51.382;6.768;2023-05-10T11:48:58;3.50;;;2.60;;
11986;SDS011;6053;51.382;6.768;2023-05-10T11:51:32;2.60;;;2.40;;
11986;SDS011;6053;51.382;6.768;2023-05-10T11:54:05;2.73;;;1.97;;
11986;SDS011;6053;51.382;6.768;2023-05-10T11:56:35;3.25;;;2.70;;
11986;SDS011;6053;51.382;6.768;2023-05-10T11:59:04;2.92;;;2.35;;
11986;SDS011;6053;51.382;6.768;2023-05-10T12:01:34;2.40;;;2.20;;
11986;SDS011;6053;51.382;6.768;2023-05-10T12:04:04;1.50;;;1.40;;
11986;SDS011;6053;51.382;6.768;2023-05-10T12:06:35;3.87;;;2.23;;
11986;SDS011;6053;51.382;6.768;2023-05-10T12:09:07;2.92;;;1.95;;
11986;SDS011;6053;51.382;6.768;2023-05-10T12:11:36;2.23;;;1.93;;
11986;SDS011;6053;51.382;6.768;2023-05-10T12:14:10;2.08;;;1.92;;
11986;SDS011;6053;51.382;6.768;2023-05-10T12:16:38;2.40;;;1.97;;
11986;SDS011;6053;51.382;6.768;2023-05-10T12:19:08;2.72;;;2.53;;
11986;SDS011;6053;51.382;6.768;2023-05-10T12:21:37;1.98;;;1.88;;
11986;SDS011;6053;51.382;6.768;2023-05-10T12:24:07;1.70;;;1.60;;
11986;SDS011;6053;51.382;6.768;2023-05-10T12:26:36;2.80;;;2.40;;
11986;SDS011;6053;51.382;6.768;2023-05-10T12:29:14;2.88;;;1.75;;
11986;SDS011;6053;51.382;6.768;2023-05-10T12:31:50;3.67;;;2.50;;
11986;SDS011;6053;51.382;6.768;2023-05-10T12:34:25;3.22;;;2.33;;
11986;SDS011;6053;51.382;6.768;2023-05-10T12:36:54;2.28;;;2.08;;
11986;SDS011;6053;51.382;6.768;2023-05-10T12:39:23;2.50;;;2.30;;
11986;SDS011;6053;51.382;6.768;2023-05-10T12:41:51;2.28;;;2.08;;
11986;SDS011;6053;51.382;6.768;2023-05-10T12:44:19;2.10;;;2.00;;
11986;SDS011;6053;51.382;6.768;2023-05-10T12:46:48;1.97;;;1.87;;
11986;SDS011;6053;51.382;6.768;2023-05-10T12:49:16;2.55;;;1.75;;
11986;SDS011;6053;51.382;6.768;2023-05-10T12:51:47;1.70;;;1.60;;
11986;SDS011;6053;51.382;6.768;2023-05-10T12:54:15;2.03;;;1.45;;
11986;SDS011;6053;51.382;6.768;2023-05-10T12:56:43;1.38;;;1.27;;
11986;SDS011;6053;51.382;6.768;2023-05-10T12:59:11;2.17;;;1.80;;
11986;SDS011;6053;51.382;6.768;2023-05-10T13:01:40;2.75;;;2.03;;
11986;SDS011;6053;51.382;6.768;2023-05-10T13:04:08;3.25;;;2.10;;
11986;SDS011;6053;51.382;6.768;2023-05-10T13:06:37;1.67;;;1.55;;
11986;SDS011;6053;51.382;6.768;2023-05-10T13:09:06;2.63;;;2.00;;
11986;SDS011;6053;51.382;6.768;2023-05-10T13:11:34;1.65;;;1.33;;
11986;SDS011;6053;51.382;6.768;2023-05-10T13:14:03;2.45;;;1.90;;
11986;SDS011;6053;51.382;6.768;2023-05-10T13:16:31;2.77;;;1.67;;
11986;SDS011;6053;51.382;6.768;2023-05-10T13:19:00;3.75;;;2.22;;
11986;SDS011;6053;51.382;6.768;2023-05-10T13:21:29;2.47;;;2.28;;
11986;SDS011;6053;51.382;6.768;2023-05-10T13:23:57;2.13;;;2.03;;
11986;SDS011;6053;51.382;6.768;2023-05-10T13:26:27;2.88;;;2.67;;
11986;SDS011;6053;51.382;6.768;2023-05-10T13:28:56;2.20;;;1.98;;
11986;SDS011;6053;51.382;6.768;2023-05-10T13:31:24;5.13;;;3.35;;
11986;SDS011;6053;51.382;6.768;2023-05-10T13:33:52;2.00;;;1.90;;
11986;SDS011;6053;51.382;6.768;2023-05-10T13:36:21;3.40;;;3.00;;
11986;SDS011;6053;51.382;6.768;2023-05-10T13:38:49;3.67;;;3.28;;
11986;SDS011;6053;51.382;6.768;2023-05-10T13:41:17;2.75;;;1.88;;
11986;SDS011;6053;51.382;6.768;2023-05-10T13:43:47;2.92;;;2.10;;
11986;SDS011;6053;51.382;6.768;2023-05-10T13:46:15;3.60;;;2.80;;
11986;SDS011;6053;51.382;6.768;2023-05-10T13:48:44;5.05;;;3.30;;
11986;SDS011;6053;51.382;6.768;2023-05-10T13:51:12;1.70;;;1.60;;
11986;SDS011;6053;51.382;6.768;2023-05-10T13:53:40;1.73;;;1.63;;
11986;SDS011;6053;51.382;6.768;2023-05-10T13:56:08;3.75;;;3.03;;
11986;SDS011;6053;51.382;6.768;2023-05-10T13:58:37;2.67;;;2.47;;
11986;SDS011;6053;51.382;6.768;2023-05-10T14:01:06;1.83;;;1.58;;
11986;SDS011;6053;51.382;6.768;2023-05-10T14:03:35;2.17;;;1.97;;
11986;SDS011;6053;51.382;6.768;2023-05-10T14:06:03;3.95;;;2.03;;
11986;SDS011;6053;51.382;6.768;2023-05-10T14:08:33;2.50;;;2.15;;
11986;SDS011;6053;51.382;6.768;2023-05-10T14:11:02;1.65;;;1.55;;
11986;SDS011;6053;51.382;6.768;2023-05-10T14:13:31;2.90;;;2.67;;
11986;SDS011;6053;51.382;6.768;2023-05-10T14:15:59;3.83;;;3.23;;
11986;SDS011;6053;51.382;6.768;2023-05-10T14:18:29;3.75;;;3.45;;
11986;SDS011;6053;51.382;6.768;2023-05-10T14:20:57;7.70;;;4.50;;
11986;SDS011;6053;51.382;6.768;2023-05-10T14:23:25;4.63;;;4.10;;
11986;SDS011;6053;51.382;6.768;2023-05-10T14:25:55;4.03;;;2.85;;
11986;SDS011;6053;51.382;6.768;2023-05-10T14:28:23;2.58;;;2.42;;
11986;SDS011;6053;51.382;6.768;2023-05-10T14:30:52;2.57;;;2.37;;
11986;SDS011;6053;51.382;6.768;2023-05-10T14:33:20;3.20;;;2.90;;
11986;SDS011;6053;51.382;6.768;2023-05-10T14:35:49;4.63;;;4.22;;
11986;SDS011;6053;51.382;6.768;2023-05-10T14:38:18;2.95;;;2.75;;
11986;SDS011;6053;51.382;6.768;2023-05-10T14:40:46;4.78;;;3.38;;
11986;SDS011;6053;51.382;6.768;2023-05-10T14:43:14;2.95;;;2.70;;
11986;SDS011;6053;51.382;6.768;2023-05-10T14:45:43;4.68;;;4.22;;
11986;SDS011;6053;51.382;6.768;2023-05-10T14:48:12;5.00;;;4.15;;
11986;SDS011;6053;51.382;6.768;2023-05-10T14:50:45;4.68;;;4.18;;
11986;SDS011;6053;51.382;6.768;2023-05-10T14:53:14;3.80;;;3.45;;
11986;SDS011;6053;51.382;6.768;2023-05-10T14:55:43;3.35;;;3.08;;
11986;SDS011;6053;51.382;6.768;2023-05-10T14:58:11;3.40;;;2.38;;
11986;SDS011;6053;51.382;6.768;2023-05-10T15:00:40;6.18;;;4.88;;
11986;SDS011;6053;51.382;6.768;2023-05-10T15:03:08;2.78;;;2.58;;
11986;SDS011;6053;51.382;6.768;2023-05-10T15:05:37;3.33;;;3.03;;
11986;SDS011;6053;51.382;6.768;2023-05-10T15:08:05;3.53;;;3.20;;
11986;SDS011;6053;51.382;6.768;2023-05-10T15:10:36;3.70;;;3.37;;
11986;SDS011;6053;51.382;6.768;2023-05-10T15:13:05;3.75;;;3.45;;
11986;SDS011;6053;51.382;6.768;2023-05-10T15:15:33;4.30;;;3.90;;
11986;SDS011;6053;51.382;6.768;2023-05-10T15:18:01;3.93;;;3.63;;
11986;SDS011;6053;51.382;6.768;2023-05-10T15:20:30;4.25;;;3.85;;
11986;SDS011;6053;51.382;6.768;2023-05-10T15:22:59;2.85;;;2.63;;
11986;SDS011;6053;51.382;6.768;2023-05-10T15:25:27;3.50;;;3.25;;